Nina — ICMG — position and weather

sailwx.info

Track history (hours):
 
Tides and Currents Weather Stations Pressure Air Temp Water Temp Dewpoint Dewpoint Depression Visibility Wind Speed Wind Dir Waves Ship Positions

Nina

Last reported at 2015-Apr-14 23:31 UTC. Time now 2015-Apr-28 00:32 UTC.
Position N 39°08' W 030°36'.
Warning: this ship's position is 13 days out of date.

Length 180 m; draft 9.7 m.

Type: Tanker. MMSI: 247239700.

Date/timePositionNaut miles runAvg speedWind from/ knotsBaromVisibWave heightAir tempDewpointWater temp
2015-Apr-14 23:31N 39°08' W 030°36'1111.1
2015-Apr-14 22:33N 39°14' W 030°24'1110.3
2015-Apr-14 21:32N 39°19' W 030°13'1010.2
2015-Apr-14 20:33N 39°24' W 030°02'1010.6
2015-Apr-14 19:33N 39°31' W 029°51'1110.5
2015-Apr-14 18:32N 39°38' W 029°40'1010.3
2015-Apr-14 17:33N 39°44' W 029°30'2210.5
2015-Apr-14 15:28N 39°58' W 029°07'1011.0
2015-Apr-14 14:33N 40°04' W 028°57'2410.7
2015-Apr-14 12:16N 40°19' W 028°32'  
2015-Apr-09 20:07N 49°47' W 003°48'1811.4
2015-Apr-09 18:33N 49°53' W 003°22'1312.8
2015-Apr-09 17:33N 49°58' W 003°04'1414.1
2015-Apr-09 16:33N 50°02' W 002°43'1514.7
2015-Apr-09 15:33N 50°06' W 002°21'1414.0
2015-Apr-09 14:33N 50°09' W 001°60'1312.5
2015-Apr-09 13:33N 50°13' W 001°41'1110.9
2015-Apr-09 12:33N 50°16' W 001°24'10 9.7
2015-Apr-09 11:33N 50°18' W 001°10'9 8.8
2015-Apr-09 10:33N 50°21' W 000°57'1210.0
2015-Apr-09 09:19N 50°24' W 000°38'1311.5
2015-Apr-09 08:13N 50°27' W 000°19'912.7
2015-Apr-09 07:32N 50°30' W 000°06'1413.5
2015-Apr-09 06:28N 50°33' E 000°16'1313.7
2015-Apr-09 05:33N 50°37' E 000°35'1313.0
2015-Apr-09 04:33N 50°44' E 000°52'1211.8
2015-Apr-09 03:33N 50°52' E 001°06'1010.4
2015-Apr-09 02:33N 50°59' E 001°18'10 9.8
2015-Apr-09 01:33N 51°06' E 001°29'1111.2
2015-Apr-09 00:33N 51°13' E 001°43'1413.6
2015-Apr-08 23:34N 51°24' E 001°55'1414.1
2015-Apr-08 22:34N 51°35' E 002°09'1414.3
2015-Apr-08 21:33N 51°46' E 002°25'1313.2
2015-Apr-08 20:33N 51°55' E 002°40'1311.8
2015-Apr-08 19:26N 52°03' E 002°57'1412.1
2015-Apr-08 18:15N 52°04' E 003°20'811.6
2015-Apr-08 17:32N 52°04' E 003°34'1110.9
2015-Apr-08 16:33N 52°03' E 003°51'9 9.3
2015-Apr-08 15:33N 51°59' E 004°05'10 9.5
2015-Apr-08 14:33N 51°54' E 004°18'3 0.9
2015-Apr-08 11:23N 51°53' E 004°22'0 0.0
2015-Apr-08 09:17N 51°53' E 004°22'0 0.0
2015-Apr-08 06:17N 51°53' E 004°22'0 0.0
2015-Apr-08 03:17N 51°53' E 004°22'0 0.0
2015-Apr-08 00:05N 51°53' E 004°22'0 0.0
2015-Apr-07 23:23N 51°53' E 004°22'0 0.0
2015-Apr-07 22:26N 51°53' E 004°22'0 0.0
2015-Apr-07 21:23N 51°53' E 004°22'0 0.0
2015-Apr-07 20:26N 51°53' E 004°22'0 0.0
2015-Apr-07 19:11N 51°53' E 004°22'0 0.0
2015-Apr-07 18:23N 51°53' E 004°22'0 0.0
2015-Apr-07 17:29N 51°53' E 004°22'0 0.0
2015-Apr-07 16:29N 51°53' E 004°22'0 0.0
2015-Apr-07 15:14N 51°53' E 004°22'0 0.0
2015-Apr-07 14:11N 51°53' E 004°22'0 0.0
2015-Apr-07 12:17N 51°53' E 004°22'0 0.0
2015-Apr-07 11:17N 51°53' E 004°22'0 0.0
2015-Apr-07 09:05N 51°53' E 004°22'0 0.0
2015-Apr-07 08:05N 51°53' E 004°22'0 0.0
2015-Apr-07 03:11N 51°53' E 004°22'0 0.0
2015-Apr-07 02:23N 51°53' E 004°22'0 0.0
2015-Apr-07 01:32N 51°53' E 004°22'0 0.0
2015-Apr-06 23:23N 51°53' E 004°22'0 0.0
2015-Apr-06 21:29N 51°53' E 004°22'0 0.0
2015-Apr-06 20:14N 51°53' E 004°22'0 0.0
2015-Apr-06 19:29N 51°53' E 004°22'0 0.0
2015-Apr-06 17:29N 51°53' E 004°22'0 0.0
2015-Apr-06 16:26N 51°53' E 004°22'0 0.0
2015-Apr-06 14:11N 51°53' E 004°22'0 0.0
2015-Apr-06 13:32N 51°53' E 004°22'0 0.0
2015-Apr-06 12:26N 51°53' E 004°22'0 0.0
2015-Apr-06 11:29N 51°53' E 004°22'0 0.0
2015-Apr-06 10:29N 51°53' E 004°22'0 0.0
2015-Apr-06 09:29N 51°53' E 004°22'0 0.0
2015-Apr-06 08:23N 51°53' E 004°22'0 0.0
2015-Apr-06 07:26N 51°53' E 004°22'0 0.0
2015-Apr-06 06:32N 51°53' E 004°22'0 0.0
2015-Apr-06 04:17N 51°53' E 004°22'0 0.0
2015-Apr-06 03:20N 51°53' E 004°22'0 0.0
2015-Apr-06 02:14N 51°53' E 004°22'0 0.0
2015-Apr-06 01:23N 51°53' E 004°22'0 0.0
2015-Apr-06 00:14N 51°53' E 004°22'0 0.0
2015-Apr-05 23:23N 51°53' E 004°22'0 0.0
2015-Apr-05 21:08N 51°53' E 004°22'0 0.0
2015-Apr-05 19:14N 51°53' E 004°22'0 0.0
2015-Apr-05 18:23N 51°53' E 004°22'0 0.0
2015-Apr-05 15:11N 51°53' E 004°22'0 0.0
2015-Apr-05 14:14N 51°53' E 004°22'0 0.0
2015-Apr-05 13:05N 51°53' E 004°22'0 0.0
2015-Apr-05 11:17N 51°53' E 004°22'0 0.0
2015-Apr-05 09:26N 51°53' E 004°22'0 0.0
2015-Apr-05 08:14N 51°53' E 004°22'0 0.0
2015-Apr-05 07:20N 51°53' E 004°22'0 0.0
2015-Apr-05 06:29N 51°53' E 004°22'0 0.0
2015-Apr-05 05:29N 51°53' E 004°22'0 0.0
2015-Apr-05 04:14N 51°53' E 004°22'0 0.0
2015-Apr-05 03:08N 51°53' E 004°22'0 0.0
2015-Apr-05 02:29N 51°53' E 004°22'0 0.0
2015-Apr-05 01:11N 51°53' E 004°22'0 0.0
2015-Apr-05 00:05N 51°53' E 004°22'  
Track history (hours):
 
Tides and Currents Weather Stations Pressure Air Temp Water Temp Dewpoint Dewpoint Depression Visibility Wind Speed Wind Dir Waves Ship Positions

Nina

Last reported at 2015-Apr-14 23:31 UTC. Time now 2015-Apr-28 00:32 UTC.
Position N 39°08' W 030°36'.
Warning: this ship's position is 13 days out of date.

Length 180 m; draft 9.7 m.

Type: Tanker. MMSI: 247239700.

Date/timePositionNaut miles runAvg speedWind from/ knotsBaromVisibWave heightAir tempDewpointWater temp
2015-Apr-14 23:31N 39°08' W 030°36'1111.1
2015-Apr-14 22:33N 39°14' W 030°24'1110.3
2015-Apr-14 21:32N 39°19' W 030°13'1010.2
2015-Apr-14 20:33N 39°24' W 030°02'1010.6
2015-Apr-14 19:33N 39°31' W 029°51'1110.5
2015-Apr-14 18:32N 39°38' W 029°40'1010.3
2015-Apr-14 17:33N 39°44' W 029°30'2210.5
2015-Apr-14 15:28N 39°58' W 029°07'1011.0
2015-Apr-14 14:33N 40°04' W 028°57'2410.7
2015-Apr-14 12:16N 40°19' W 028°32'  
2015-Apr-09 20:07N 49°47' W 003°48'1811.4
2015-Apr-09 18:33N 49°53' W 003°22'1312.8
2015-Apr-09 17:33N 49°58' W 003°04'1414.1
2015-Apr-09 16:33N 50°02' W 002°43'1514.7
2015-Apr-09 15:33N 50°06' W 002°21'1414.0
2015-Apr-09 14:33N 50°09' W 001°60'1312.5
2015-Apr-09 13:33N 50°13' W 001°41'1110.9
2015-Apr-09 12:33N 50°16' W 001°24'10 9.7
2015-Apr-09 11:33N 50°18' W 001°10'9 8.8
2015-Apr-09 10:33N 50°21' W 000°57'1210.0
2015-Apr-09 09:19N 50°24' W 000°38'1311.5
2015-Apr-09 08:13N 50°27' W 000°19'912.7
2015-Apr-09 07:32N 50°30' W 000°06'1413.5
2015-Apr-09 06:28N 50°33' E 000°16'1313.7
2015-Apr-09 05:33N 50°37' E 000°35'1313.0
2015-Apr-09 04:33N 50°44' E 000°52'1211.8
2015-Apr-09 03:33N 50°52' E 001°06'1010.4
2015-Apr-09 02:33N 50°59' E 001°18'10 9.8
2015-Apr-09 01:33N 51°06' E 001°29'1111.2
2015-Apr-09 00:33N 51°13' E 001°43'1413.6
2015-Apr-08 23:34N 51°24' E 001°55'1414.1
2015-Apr-08 22:34N 51°35' E 002°09'1414.3
2015-Apr-08 21:33N 51°46' E 002°25'1313.2
2015-Apr-08 20:33N 51°55' E 002°40'1311.8
2015-Apr-08 19:26N 52°03' E 002°57'1412.1
2015-Apr-08 18:15N 52°04' E 003°20'811.6
2015-Apr-08 17:32N 52°04' E 003°34'1110.9
2015-Apr-08 16:33N 52°03' E 003°51'9 9.3
2015-Apr-08 15:33N 51°59' E 004°05'10 9.5
2015-Apr-08 14:33N 51°54' E 004°18'3 0.9
2015-Apr-08 11:23N 51°53' E 004°22'0 0.0
2015-Apr-08 09:17N 51°53' E 004°22'0 0.0
2015-Apr-08 06:17N 51°53' E 004°22'0 0.0
2015-Apr-08 03:17N 51°53' E 004°22'0 0.0
2015-Apr-08 00:05N 51°53' E 004°22'0 0.0
2015-Apr-07 23:23N 51°53' E 004°22'0 0.0
2015-Apr-07 22:26N 51°53' E 004°22'0 0.0
2015-Apr-07 21:23N 51°53' E 004°22'0 0.0
2015-Apr-07 20:26N 51°53' E 004°22'0 0.0
2015-Apr-07 19:11N 51°53' E 004°22'0 0.0
2015-Apr-07 18:23N 51°53' E 004°22'0 0.0
2015-Apr-07 17:29N 51°53' E 004°22'0 0.0
2015-Apr-07 16:29N 51°53' E 004°22'0 0.0
2015-Apr-07 15:14N 51°53' E 004°22'0 0.0
2015-Apr-07 14:11N 51°53' E 004°22'0 0.0
2015-Apr-07 12:17N 51°53' E 004°22'0 0.0
2015-Apr-07 11:17N 51°53' E 004°22'0 0.0
2015-Apr-07 09:05N 51°53' E 004°22'0 0.0
2015-Apr-07 08:05N 51°53' E 004°22'0 0.0
2015-Apr-07 03:11N 51°53' E 004°22'0 0.0
2015-Apr-07 02:23N 51°53' E 004°22'0 0.0
2015-Apr-07 01:32N 51°53' E 004°22'0 0.0
2015-Apr-06 23:23N 51°53' E 004°22'0 0.0
2015-Apr-06 21:29N 51°53' E 004°22'0 0.0
2015-Apr-06 20:14N 51°53' E 004°22'0 0.0
2015-Apr-06 19:29N 51°53' E 004°22'0 0.0
2015-Apr-06 17:29N 51°53' E 004°22'0 0.0
2015-Apr-06 16:26N 51°53' E 004°22'0 0.0
2015-Apr-06 14:11N 51°53' E 004°22'0 0.0
2015-Apr-06 13:32N 51°53' E 004°22'0 0.0
2015-Apr-06 12:26N 51°53' E 004°22'0 0.0
2015-Apr-06 11:29N 51°53' E 004°22'0 0.0
2015-Apr-06 10:29N 51°53' E 004°22'0 0.0
2015-Apr-06 09:29N 51°53' E 004°22'0 0.0
2015-Apr-06 08:23N 51°53' E 004°22'0 0.0
2015-Apr-06 07:26N 51°53' E 004°22'0 0.0
2015-Apr-06 06:32N 51°53' E 004°22'0 0.0
2015-Apr-06 04:17N 51°53' E 004°22'0 0.0
2015-Apr-06 03:20N 51°53' E 004°22'0 0.0
2015-Apr-06 02:14N 51°53' E 004°22'0 0.0
2015-Apr-06 01:23N 51°53' E 004°22'0 0.0
2015-Apr-06 00:14N 51°53' E 004°22'0 0.0
2015-Apr-05 23:23N 51°53' E 004°22'0 0.0
2015-Apr-05 21:08N 51°53' E 004°22'0 0.0
2015-Apr-05 19:14N 51°53' E 004°22'0 0.0
2015-Apr-05 18:23N 51°53' E 004°22'0 0.0
2015-Apr-05 15:11N 51°53' E 004°22'0 0.0
2015-Apr-05 14:14N 51°53' E 004°22'0 0.0
2015-Apr-05 13:05N 51°53' E 004°22'0 0.0
2015-Apr-05 11:17N 51°53' E 004°22'0 0.0
2015-Apr-05 09:26N 51°53' E 004°22'0 0.0
2015-Apr-05 08:14N 51°53' E 004°22'0 0.0
2015-Apr-05 07:20N 51°53' E 004°22'0 0.0
2015-Apr-05 06:29N 51°53' E 004°22'0 0.0
2015-Apr-05 05:29N 51°53' E 004°22'0 0.0
2015-Apr-05 04:14N 51°53' E 004°22'0 0.0
2015-Apr-05 03:08N 51°53' E 004°22'0 0.0
2015-Apr-05 02:29N 51°53' E 004°22'0 0.0
2015-Apr-05 01:11N 51°53' E 004°22'0 0.0
2015-Apr-05 00:05N 51°53' E 004°22'  

Dump ship's entire track history